Auburn, CA

3:08 AM PDT on September 19, 2014 (GMT -0700)
Grass Valley | Change Station
CLOSE
Current Station
Airport
Location: Grass Valley,
Elevation: 3153 ft
Nearby Weather Stations

Elev 3153 ft 39.22 °N, 121.00 °W | Updated 8 minutes ago

Clear
Clear
61 °F
Feels Like 61 °F
N
6
Wind Variable Wind from NNW

Today
High -- | Low -- °F
--% Chance of Precip.
Yesterday
High -- | Low -- °F
Precip. -- in
6:49 AM 7:06 PM
Waning Crescent, 20% visible
Pressure 29.97 in
Visibility 10.0 miles
Clouds Clear
Dew Point 54 °F
Humidity 77%
Rainfall 0.00 in
Snow Depth 1 in , 0 in , 0 in
UV 0 out of 12
Pollen 5.40 out of 12
Ozone Good
Flu Activity Not available.
METAR KGOO 191000Z AUTO 34005KT 10SM CLR 16/12 A2997 RMK AO1

More Conditions Fewer Conditions

Pressure 29.97 in
Visibility 10.0 miles
Clouds Clear
Dew Point 54 °F
Humidity 77%
Rainfall 0.00 in
Snow Depth 1 in , 0 in , 0 in
UV 0 out of 12
Pollen 5.40 out of 12
Ozone Good
Flu Activity Not available.
METAR KGOO 191000Z AUTO 34005KT 10SM CLR 16/12 A2997 RMK AO1

More Conditions Fewer Conditions

10-Day Weather Forecast

Almanac

Astronomy

Sep. 19, 2014 Rise Set
Actual Time 6:49 AM PDT 7:06 PM PDT
Civil Twilight 6:22 AM PDT 7:32 PM PDT
Nautical Twilight 5:51 AM PDT 8:04 PM PDT
Astronomical Twilight 5:19 AM PDT 8:35 PM PDT
Moon 2:41 AM PDT 4:36 PM PDT
Length of Visible Light 13h 09m
Length of Day
12h 16m
Tomorrow will be 2m 31s shorter.
Waning Crescent, 20% of the Moon is Illuminated
Today
Waning Crescent
Sep 24
New
Oct 1
First Quarter
Oct 8
Full
Oct 15
Last Quarter

Today's Extremes

State Highs State Lows

Community

WunderPhotos

Upload Photos

1,754,583 photos uploaded!

Nearby

Air Quality

  Air Quality AQ Index Pollutant
Yesterday Good
OZONE
Current Good
OZONE
Friday Moderate
OZONE
Saturday Moderate
OZONE
Sunday Moderate
OZONE
Monday Moderate
OZONE
Tuesday Moderate
OZONE

Snow Depth

Station Depth Elevation
Spratt Creek 1 in 6200 ft
Squaw Valley 0 in 8200 ft
Burnside Lake 0 in 8139 ft
Leavitt Meadows 0 in 7200 ft
Independence Lake 0 in 8450 ft

Earthquake Activity

City Distance Mag. Time & Date
The Geysers, California 87 miles 2.5 11:29 PM PDT
2014-09-17
Cobb, California 87 miles 2.7 1:23 PM PDT
2014-09-16
Minimum magnitude displayed is 2.5.

Coastal Water Temperatures

Place Temperature
No Stations Reporting

Nearby Weather Stations